Kitty Hawk, North Carolina
Current Conditions -  °F | °C
As of 7:55 AM on Friday 31 Oct 2014 (Local Time) from KFFA Reporting Station
Scattered Clouds Scattered Clouds  
Wind Chill: 59°   Ceiling: Unl
Heat Index: 59°   Visibility: 10mi
Dew Point: 44°   Wind: 7mph
Humidity: 57%   Direction: 20°NNE
Pressure: 29.89"   Gusts: 16mph
Location:  36.06°N, 75.71°W
Report Text: KFFA 311155Z AUTO 02006G14KT 10SM SCT060 SCT070 15/07 A2989 RMK AO2 T01510065 10348 21080
Loading
Personal Weather Stations






























Interactive Weather Map
Tropical Storm Tracking
New forecast layout! Learn more

10-Day Weather Forecast

Advertisements
Track Severe Weather on mobile